createdAt,value
2022-08-26T00:00:16.298Z,51.49
2022-08-26T00:01:16.309Z,45.99
2022-08-26T00:02:16.323Z,48.24
2022-08-26T00:03:16.261Z,51.88
2022-08-26T00:04:17.332Z,56.47
2022-08-26T00:05:16.262Z,56.67
2022-08-26T00:06:16.256Z,53.38
2022-08-26T00:07:16.243Z,56.02
2022-08-26T00:08:16.308Z,52.34
2022-08-26T00:09:16.793Z,48.35
2022-08-26T00:10:16.216Z,47.68
2022-08-26T00:11:26.767Z,50.96
2022-08-26T00:12:17.889Z,53.56
2022-08-26T00:13:16.187Z,47.22
2022-08-26T00:14:16.204Z,49.80
2022-08-26T00:15:16.228Z,51.55
2022-08-26T00:16:16.187Z,51.29
2022-08-26T00:17:16.162Z,51.57
2022-08-26T00:18:21.787Z,53.24
2022-08-26T00:19:17.186Z,51.22
2022-08-26T00:20:16.134Z,53.60
2022-08-26T00:21:16.145Z,47.24
2022-08-26T00:22:20.195Z,48.31
2022-08-26T00:23:17.120Z,56.50
2022-08-26T00:24:16.111Z,50.09
2022-08-26T00:25:16.810Z,47.79
2022-08-26T00:26:16.091Z,48.99
2022-08-26T00:27:16.082Z,50.11
2022-08-26T00:28:16.086Z,46.19
2022-08-26T00:29:16.084Z,49.44
2022-08-26T00:30:16.062Z,52.93
2022-08-26T00:33:05.766Z,54.81
2022-08-26T00:34:05.680Z,54.48
2022-08-26T00:35:05.678Z,61.76
2022-08-26T00:36:05.659Z,48.20
2022-08-26T00:37:09.844Z,50.74
2022-08-26T00:38:06.646Z,49.90
2022-08-26T00:39:06.737Z,50.13
2022-08-26T00:40:06.779Z,52.87
2022-08-26T00:41:06.721Z,44.05
2022-08-26T00:42:06.717Z,52.87
2022-08-26T00:43:06.724Z,47.36
2022-08-26T00:44:06.688Z,56.65
2022-08-26T00:45:10.191Z,53.78
2022-08-26T00:46:07.795Z,53.90
2022-08-26T00:47:06.689Z,56.58
2022-08-26T00:48:06.669Z,43.31
2022-08-26T00:49:11.702Z,46.00
2022-08-26T00:50:07.658Z,48.34
2022-08-26T00:51:06.641Z,49.05
2022-08-26T00:52:06.632Z,49.78
2022-08-26T00:53:07.848Z,52.34
2022-08-26T00:54:06.607Z,53.24
2022-08-26T00:55:07.631Z,46.27
2022-08-26T00:56:07.606Z,48.09
2022-08-26T00:57:08.693Z,50.55
2022-08-26T00:58:07.600Z,54.94
2022-08-26T00:59:07.557Z,53.52
2022-08-26T01:00:06.573Z,45.32
2022-08-26T01:01:06.597Z,47.48
2022-08-26T01:02:06.632Z,50.11
2022-08-26T01:03:12.627Z,51.77
2022-08-26T01:04:07.551Z,46.46
2022-08-26T01:05:06.561Z,43.71
2022-08-26T01:06:06.522Z,55.80
2022-08-26T01:07:07.518Z,48.26
2022-08-26T01:08:06.520Z,53.09
2022-08-26T01:09:07.062Z,43.98
2022-08-26T01:10:06.492Z,45.74
2022-08-26T01:11:06.485Z,49.18
2022-08-26T01:12:06.469Z,52.66
2022-08-26T01:13:06.606Z,51.44
2022-08-26T01:14:06.468Z,51.12
2022-08-26T01:15:06.449Z,47.38
2022-08-26T01:16:06.536Z,51.15
2022-08-26T01:17:07.249Z,55.19
2022-08-26T01:18:06.440Z,54.20
2022-08-26T01:19:06.414Z,49.00
2022-08-26T01:20:06.498Z,47.25
2022-08-26T01:21:06.408Z,51.89
2022-08-26T01:22:06.393Z,54.93
2022-08-26T01:23:06.502Z,58.80
2022-08-26T01:24:06.383Z,48.81
2022-08-26T01:25:06.390Z,41.51
2022-08-26T01:26:06.373Z,40.33
2022-08-26T01:27:06.348Z,53.34
2022-08-26T01:28:06.354Z,46.64
2022-08-26T01:29:06.338Z,47.80
2022-08-26T01:30:06.333Z,46.83
2022-08-26T01:31:06.413Z,43.72
2022-08-26T01:32:06.333Z,44.67
2022-08-26T01:33:06.435Z,52.38
2022-08-26T01:34:06.307Z,49.11
2022-08-26T01:35:06.296Z,51.28
2022-08-26T01:36:07.528Z,52.40
2022-08-26T01:37:06.285Z,52.53
2022-08-26T01:38:06.388Z,55.54
2022-08-26T01:39:07.171Z,47.59
2022-08-26T01:40:06.302Z,46.57
2022-08-26T01:41:16.181Z,42.77
2022-08-26T01:42:10.271Z,56.37
2022-08-26T01:43:06.489Z,45.67
2022-08-26T01:44:06.226Z,47.41
2022-08-26T01:45:06.252Z,46.95
2022-08-26T01:46:06.280Z,47.58
2022-08-26T01:47:06.552Z,44.82
2022-08-26T01:48:06.188Z,52.41
2022-08-26T01:49:06.526Z,46.74
2022-08-26T01:50:06.179Z,51.15
2022-08-26T01:51:06.171Z,58.96
2022-08-26T01:52:06.226Z,54.24
2022-08-26T01:53:06.304Z,41.98
2022-08-26T01:54:06.154Z,44.89
2022-08-26T01:55:06.162Z,53.19
2022-08-26T01:56:06.130Z,54.49
2022-08-26T01:57:07.078Z,50.85
2022-08-26T01:58:06.137Z,47.37
2022-08-26T01:59:06.112Z,43.89
2022-08-26T02:00:06.125Z,52.85
2022-08-26T02:01:06.134Z,42.15
2022-08-26T02:02:06.110Z,56.16
2022-08-26T02:03:06.269Z,51.84
2022-08-26T02:04:06.112Z,47.31
2022-08-26T02:05:06.081Z,53.54
2022-08-26T02:06:06.061Z,49.16
2022-08-26T02:07:06.061Z,56.43
2022-08-26T02:08:06.041Z,50.22
2022-08-26T02:09:06.048Z,53.07
2022-08-26T02:10:06.025Z,45.95
2022-08-26T02:11:06.016Z,49.78
2022-08-26T02:12:06.012Z,52.03
2022-08-26T02:13:06.084Z,51.51
2022-08-26T02:14:06.010Z,50.45
2022-08-26T02:15:05.984Z,50.12
2022-08-26T02:16:06.037Z,58.24
2022-08-26T02:17:05.977Z,45.98
2022-08-26T02:18:05.965Z,53.50
2022-08-26T02:19:05.952Z,57.41
2022-08-26T02:20:05.944Z,44.22
2022-08-26T02:21:06.935Z,55.98
2022-08-26T02:22:05.928Z,49.63
2022-08-26T02:23:06.023Z,56.93
2022-08-26T02:24:05.919Z,52.00
2022-08-26T02:25:05.905Z,46.67
2022-08-26T02:26:05.898Z,56.42
2022-08-26T02:27:05.886Z,44.90
2022-08-26T02:28:05.891Z,48.88
2022-08-26T02:29:05.893Z,53.62
2022-08-26T02:30:05.880Z,58.85
2022-08-26T02:31:05.903Z,54.47
2022-08-26T02:32:05.851Z,52.54
2022-08-26T02:33:06.027Z,51.02
2022-08-26T02:34:05.844Z,55.19
2022-08-26T02:35:06.594Z,58.03
2022-08-26T02:36:05.821Z,55.04
2022-08-26T02:37:05.837Z,52.35
2022-08-26T02:38:10.176Z,47.86
2022-08-26T02:39:06.815Z,53.62
2022-08-26T02:40:05.843Z,58.40
2022-08-26T02:41:05.785Z,46.89
2022-08-26T02:42:05.784Z,53.75
2022-08-26T02:43:05.775Z,52.04
2022-08-26T02:44:05.759Z,49.81
2022-08-26T02:45:05.753Z,56.70
2022-08-26T02:46:05.751Z,58.37
2022-08-26T02:47:05.770Z,47.81
2022-08-26T02:48:05.731Z,54.90
2022-08-26T02:49:05.736Z,58.64
2022-08-26T02:50:05.713Z,58.55
2022-08-26T02:51:05.720Z,52.69
2022-08-26T02:52:05.697Z,52.11
2022-08-26T02:53:05.697Z,51.09
2022-08-26T02:54:05.679Z,56.87
2022-08-26T02:55:05.675Z,57.78
2022-08-26T02:56:05.685Z,57.75
2022-08-26T02:57:05.667Z,50.89
2022-08-26T02:58:05.661Z,45.73
2022-08-26T02:59:05.651Z,51.25
2022-08-26T03:00:05.644Z,58.04
2022-08-26T03:01:05.678Z,58.24
2022-08-26T03:02:05.629Z,55.74
2022-08-26T03:03:05.620Z,54.12
2022-08-26T03:04:05.597Z,52.32
2022-08-26T03:05:05.586Z,57.68
2022-08-26T03:06:05.582Z,47.77
2022-08-26T03:07:05.594Z,57.45
2022-08-26T03:08:05.588Z,56.89
2022-08-26T03:09:05.560Z,53.15
2022-08-26T03:10:08.299Z,53.00
2022-08-26T03:11:05.557Z,59.52
2022-08-26T03:12:05.552Z,56.70
2022-08-26T03:13:05.586Z,52.57
2022-08-26T03:14:05.542Z,57.32
2022-08-26T03:15:16.463Z,55.51
2022-08-26T03:16:06.551Z,54.35
2022-08-26T03:17:05.502Z,59.78
2022-08-26T03:18:05.495Z,57.48
2022-08-26T03:19:05.485Z,57.18
2022-08-26T03:20:05.480Z,61.22
2022-08-26T03:21:05.474Z,63.83
2022-08-26T03:22:05.460Z,60.01
2022-08-26T03:23:05.477Z,63.12
2022-08-26T03:24:05.452Z,60.28
2022-08-26T03:25:06.130Z,57.36
2022-08-26T03:26:05.430Z,58.38
2022-08-26T03:27:05.985Z,57.92
2022-08-26T03:28:37.639Z,56.25
2022-08-26T03:29:06.212Z,61.67
2022-08-26T03:30:05.395Z,60.22
2022-08-26T03:31:05.423Z,58.85
2022-08-26T03:32:05.381Z,60.80
2022-08-26T03:33:05.421Z,55.10
2022-08-26T03:34:05.366Z,61.49
2022-08-26T03:35:05.359Z,60.77
2022-08-26T03:36:05.346Z,62.60
2022-08-26T03:37:05.344Z,62.11
2022-08-26T03:38:05.338Z,62.88
2022-08-26T03:39:05.325Z,60.71
2022-08-26T03:40:05.348Z,59.97
2022-08-26T03:41:05.309Z,57.62
2022-08-26T03:42:05.299Z,57.42
2022-08-26T03:43:05.307Z,58.72
2022-08-26T03:44:05.294Z,57.38
2022-08-26T03:45:05.277Z,60.45
2022-08-26T03:46:05.327Z,56.45
2022-08-26T03:47:05.263Z,61.79
2022-08-26T03:48:05.267Z,57.86
2022-08-26T03:49:05.258Z,62.27
2022-08-26T03:50:05.241Z,61.17
2022-08-26T03:51:05.237Z,62.56
2022-08-26T03:52:05.226Z,61.83
2022-08-26T03:53:05.221Z,57.98
2022-08-26T03:54:05.220Z,61.63
2022-08-26T03:55:05.203Z,60.38
2022-08-26T03:56:05.195Z,57.28
2022-08-26T03:57:05.197Z,56.78
2022-08-26T03:58:05.179Z,56.28
2022-08-26T03:59:05.168Z,55.99
2022-08-26T04:00:05.169Z,60.02
2022-08-26T04:01:05.152Z,61.38
2022-08-26T04:02:11.397Z,64.01
2022-08-26T04:03:06.378Z,61.91
2022-08-26T04:04:05.132Z,58.94
2022-08-26T04:05:05.121Z,60.83
2022-08-26T04:06:05.116Z,60.19
2022-08-26T04:07:05.110Z,58.89
2022-08-26T04:08:05.112Z,60.69
2022-08-26T04:09:05.109Z,59.10
2022-08-26T04:10:05.088Z,57.95
2022-08-26T04:11:05.076Z,58.72
2022-08-26T04:12:05.069Z,57.16
2022-08-26T04:13:05.149Z,60.51
2022-08-26T04:14:05.077Z,60.60
2022-08-26T04:15:05.044Z,61.98
2022-08-26T04:16:05.076Z,59.16
2022-08-26T04:17:05.034Z,60.29
2022-08-26T04:18:05.027Z,61.64
2022-08-26T04:19:05.014Z,61.73
2022-08-26T04:20:05.010Z,65.60
2022-08-26T04:21:04.998Z,63.96
2022-08-26T04:22:04.989Z,64.64
2022-08-26T04:23:05.823Z,60.87
2022-08-26T04:24:04.977Z,60.57
2022-08-26T04:25:04.978Z,60.98
2022-08-26T04:26:04.956Z,60.95
2022-08-26T04:27:04.946Z,62.05
2022-08-26T04:28:04.957Z,61.78
2022-08-26T04:29:04.953Z,62.65
2022-08-26T04:30:04.926Z,61.95
2022-08-26T04:31:04.973Z,62.90
2022-08-26T04:32:04.917Z,62.27
2022-08-26T04:33:12.916Z,63.58
2022-08-26T04:34:05.892Z,60.60
2022-08-26T04:35:04.891Z,66.14
2022-08-26T04:36:04.880Z,62.97
2022-08-26T04:37:04.879Z,63.82
2022-08-26T04:38:05.781Z,65.82
2022-08-26T04:39:04.854Z,63.99
2022-08-26T04:40:04.903Z,62.24
2022-08-26T04:41:05.454Z,60.04
2022-08-26T04:42:06.683Z,63.72
2022-08-26T04:43:04.853Z,59.06
2022-08-26T04:44:04.817Z,61.59
2022-08-26T04:45:05.662Z,61.96
2022-08-26T04:46:05.852Z,59.90
2022-08-26T04:47:04.793Z,62.54
2022-08-26T04:48:04.805Z,62.92
2022-08-26T04:49:04.778Z,62.46
2022-08-26T04:50:04.770Z,62.38
2022-08-26T04:51:04.759Z,60.12
2022-08-26T04:52:04.844Z,62.04
2022-08-26T04:53:05.834Z,64.07
2022-08-26T04:54:04.745Z,65.23
2022-08-26T04:55:04.734Z,62.06
2022-08-26T04:56:04.728Z,61.80
2022-08-26T04:57:05.667Z,62.00
2022-08-26T04:58:04.699Z,65.30
2022-08-26T04:59:04.698Z,65.57
2022-08-26T05:00:04.693Z,63.22
2022-08-26T05:01:04.680Z,63.07
2022-08-26T05:02:04.731Z,63.37
2022-08-26T05:03:04.696Z,61.85
2022-08-26T05:04:05.008Z,64.27
2022-08-26T05:05:04.665Z,64.07
2022-08-26T05:06:04.641Z,62.48
2022-08-26T05:07:04.632Z,60.87
2022-08-26T05:08:04.665Z,62.33
2022-08-26T05:09:04.623Z,63.36
2022-08-26T05:10:04.616Z,65.35
2022-08-26T05:11:04.600Z,61.82
2022-08-26T05:12:04.596Z,62.78
2022-08-26T05:13:04.645Z,61.07
2022-08-26T05:14:05.578Z,63.94
2022-08-26T05:15:04.560Z,68.27
2022-08-26T05:16:05.628Z,67.08
2022-08-26T05:17:04.756Z,66.44
2022-08-26T05:18:04.544Z,67.03
2022-08-26T05:19:04.544Z,65.20
2022-08-26T05:20:04.535Z,64.61
2022-08-26T05:21:04.521Z,67.63
2022-08-26T05:22:04.503Z,69.55
2022-08-26T05:23:05.538Z,65.17
2022-08-26T05:24:04.496Z,64.19
2022-08-26T05:25:04.497Z,65.69
2022-08-26T05:26:05.064Z,63.40
2022-08-26T05:27:04.486Z,62.80
2022-08-26T05:28:05.465Z,59.48
2022-08-26T05:29:04.461Z,65.31
2022-08-26T05:30:04.455Z,65.01
2022-08-26T05:31:04.510Z,68.90
2022-08-26T05:32:04.436Z,66.30
2022-08-26T05:33:04.429Z,70.49
2022-08-26T05:34:04.414Z,63.63
2022-08-26T05:35:05.415Z,69.37
2022-08-26T05:36:04.417Z,68.74
2022-08-26T05:37:04.403Z,68.92
2022-08-26T05:38:04.395Z,65.90
2022-08-26T05:39:04.402Z,65.85
2022-08-26T05:40:04.471Z,61.91
2022-08-26T05:41:04.376Z,64.67
2022-08-26T05:42:04.360Z,63.93
2022-08-26T05:43:04.392Z,63.14
2022-08-26T05:44:04.351Z,65.29
2022-08-26T05:45:04.358Z,63.96
2022-08-26T05:46:04.335Z,62.68
2022-08-26T05:47:04.324Z,63.71
2022-08-26T05:48:04.323Z,64.64
2022-08-26T05:49:04.310Z,62.60
2022-08-26T05:50:04.308Z,63.32
2022-08-26T05:51:04.306Z,66.53
2022-08-26T05:52:04.314Z,64.36
2022-08-26T05:53:06.264Z,63.69
2022-08-26T05:54:04.287Z,66.64
2022-08-26T05:55:04.268Z,66.67
2022-08-26T05:56:04.259Z,63.86
2022-08-26T05:57:04.260Z,64.62
2022-08-26T05:58:04.235Z,64.63
2022-08-26T05:59:04.519Z,64.34
2022-08-26T06:00:04.243Z,63.31
2022-08-26T06:01:04.253Z,63.78
2022-08-26T06:02:04.241Z,63.15
2022-08-26T06:03:04.276Z,67.26
2022-08-26T06:04:04.710Z,63.32
2022-08-26T06:05:05.189Z,64.66
2022-08-26T06:06:04.189Z,62.51
2022-08-26T06:07:04.165Z,64.10
2022-08-26T06:08:04.158Z,64.50
2022-08-26T06:09:04.156Z,62.94
2022-08-26T06:10:30.617Z,64.38
2022-08-26T06:11:06.144Z,65.18
2022-08-26T06:12:04.126Z,63.77
2022-08-26T06:13:09.165Z,64.19
2022-08-26T06:14:06.111Z,63.03
2022-08-26T06:15:04.237Z,62.71
2022-08-26T06:16:04.137Z,63.89
2022-08-26T06:17:04.100Z,63.39
2022-08-26T06:18:04.076Z,63.89
2022-08-26T06:19:10.366Z,66.22
2022-08-26T06:20:05.058Z,66.95
2022-08-26T06:21:04.056Z,64.81
2022-08-26T06:22:04.046Z,65.09
2022-08-26T06:23:04.040Z,65.84
2022-08-26T06:24:04.039Z,64.54
2022-08-26T06:25:04.033Z,66.13
2022-08-26T06:26:04.018Z,65.33
2022-08-26T06:27:04.017Z,62.98
2022-08-26T06:28:03.999Z,64.31
2022-08-26T06:29:03.991Z,63.40
2022-08-26T06:30:03.989Z,63.56
2022-08-26T06:31:04.028Z,63.23
2022-08-26T06:32:03.994Z,62.88
2022-08-26T06:33:03.967Z,63.21
2022-08-26T06:34:08.535Z,62.79
2022-08-26T06:35:05.945Z,63.41
2022-08-26T06:36:05.700Z,63.86
2022-08-26T06:37:03.935Z,63.50
2022-08-26T06:38:04.711Z,61.77
2022-08-26T06:39:03.927Z,61.55
2022-08-26T06:40:03.955Z,63.27
2022-08-26T06:41:03.900Z,62.15
2022-08-26T06:42:06.317Z,63.37
2022-08-26T06:43:03.901Z,63.87
2022-08-26T06:44:03.892Z,65.65
2022-08-26T06:45:03.874Z,63.91
2022-08-26T06:46:04.853Z,65.26
2022-08-26T06:47:03.862Z,62.35
2022-08-26T06:48:03.848Z,60.84
2022-08-26T06:49:03.850Z,63.19
2022-08-26T06:50:03.833Z,64.83
2022-08-26T06:51:03.830Z,64.88
2022-08-26T06:52:04.710Z,64.00
2022-08-26T06:53:03.808Z,62.76
2022-08-26T06:54:03.804Z,63.74
2022-08-26T06:55:03.822Z,64.72
2022-08-26T06:56:03.793Z,63.96
2022-08-26T06:57:03.776Z,65.63
2022-08-26T06:58:03.874Z,64.25
2022-08-26T06:59:03.766Z,64.27
2022-08-26T07:00:03.764Z,64.58
2022-08-26T07:01:11.224Z,64.50
2022-08-26T07:02:05.771Z,62.66
2022-08-26T07:03:03.832Z,65.37
2022-08-26T07:04:03.722Z,61.74
2022-08-26T07:05:03.732Z,63.41
2022-08-26T07:06:03.708Z,62.14
2022-08-26T07:07:03.703Z,62.97
2022-08-26T07:08:03.689Z,63.24
2022-08-26T07:09:03.734Z,61.22
2022-08-26T07:10:04.218Z,61.61
2022-08-26T07:11:03.684Z,62.00
2022-08-26T07:12:05.490Z,60.52
2022-08-26T07:15:11.896Z,62.00
2022-08-26T07:16:11.956Z,63.12
2022-08-26T07:17:13.921Z,61.93
2022-08-26T07:18:11.869Z,63.44
2022-08-26T07:19:11.875Z,64.55
2022-08-26T07:20:20.567Z,64.28
2022-08-26T07:21:12.563Z,63.18
2022-08-26T07:22:12.931Z,63.13
2022-08-26T07:23:12.925Z,65.56
2022-08-26T07:24:12.929Z,62.18
2022-08-26T07:25:12.916Z,61.83
2022-08-26T07:26:12.899Z,61.42
2022-08-26T07:27:12.897Z,65.37
2022-08-26T07:28:12.884Z,62.59
2022-08-26T07:29:12.869Z,63.20
2022-08-26T07:30:14.918Z,63.44
2022-08-26T07:31:12.935Z,61.51
2022-08-26T07:32:12.855Z,62.57
2022-08-26T07:33:13.576Z,63.04
2022-08-26T07:34:12.852Z,63.91
2022-08-26T07:35:12.860Z,64.20
2022-08-26T07:36:12.819Z,62.62
2022-08-26T07:37:12.816Z,62.10
2022-08-26T07:38:12.808Z,64.32
2022-08-26T07:39:12.798Z,63.78
2022-08-26T07:40:13.615Z,61.61
2022-08-26T07:41:12.777Z,63.30
2022-08-26T07:42:12.778Z,62.57
2022-08-26T07:43:12.763Z,62.90
2022-08-26T07:44:13.680Z,64.27
2022-08-26T07:45:13.590Z,62.56
2022-08-26T07:46:16.366Z,60.24
2022-08-26T07:47:25.722Z,61.17
2022-08-26T07:48:13.757Z,62.51
2022-08-26T07:49:12.749Z,63.78
2022-08-26T07:50:12.708Z,63.15
2022-08-26T07:51:12.722Z,63.25
2022-08-26T07:52:12.698Z,63.45
2022-08-26T07:53:12.832Z,64.53
2022-08-26T07:54:45.612Z,63.16
2022-08-26T07:55:12.666Z,62.69
2022-08-26T07:56:12.667Z,61.49
2022-08-26T07:57:12.656Z,63.32
2022-08-26T07:58:12.651Z,62.26
2022-08-26T07:59:13.700Z,63.59
2022-08-26T08:00:12.633Z,62.86
2022-08-26T08:01:12.683Z,62.42
2022-08-26T08:02:12.609Z,67.09
2022-08-26T08:03:12.602Z,61.56
2022-08-26T08:04:12.608Z,65.02
2022-08-26T08:05:12.629Z,60.73
2022-08-26T08:06:12.585Z,62.64
2022-08-26T08:07:12.573Z,60.90
2022-08-26T08:08:27.959Z,61.86
2022-08-26T08:09:13.579Z,61.24
2022-08-26T08:10:12.576Z,61.59
2022-08-26T08:11:12.541Z,61.62
2022-08-26T08:12:14.182Z,63.99
2022-08-26T08:13:12.530Z,62.10
2022-08-26T08:14:12.527Z,61.37
2022-08-26T08:15:12.553Z,61.08
2022-08-26T08:16:12.847Z,63.02
2022-08-26T08:18:15.493Z,63.09
2022-08-26T08:19:12.487Z,62.85
2022-08-26T08:20:12.486Z,64.85
2022-08-26T08:21:21.851Z,63.94
2022-08-26T08:22:17.600Z,64.78
2022-08-26T08:23:13.466Z,62.30
2022-08-26T08:24:12.460Z,61.68
2022-08-26T08:25:12.444Z,62.72
2022-08-26T08:26:12.432Z,62.11
2022-08-26T08:27:12.434Z,61.23
2022-08-26T08:28:12.435Z,62.48
2022-08-26T08:29:12.419Z,64.14
2022-08-26T08:30:13.718Z,62.11
2022-08-26T08:31:12.420Z,60.63
2022-08-26T08:32:12.395Z,61.88
2022-08-26T08:33:12.384Z,62.66
2022-08-26T08:34:12.375Z,62.81
2022-08-26T08:35:12.364Z,63.22
2022-08-26T08:36:12.352Z,63.86
2022-08-26T08:37:13.357Z,65.60
2022-08-26T08:38:12.364Z,63.53
2022-08-26T08:39:12.336Z,60.21
2022-08-26T08:40:12.355Z,61.59
2022-08-26T08:41:12.319Z,64.25
2022-08-26T08:42:12.326Z,59.88
2022-08-26T08:43:12.322Z,62.88
2022-08-26T08:44:12.349Z,62.21
2022-08-26T08:45:12.323Z,62.12
2022-08-26T08:46:12.347Z,62.75
2022-08-26T08:47:12.280Z,60.19
2022-08-26T08:48:12.265Z,61.94
2022-08-26T08:49:12.258Z,60.41
2022-08-26T08:50:12.255Z,62.47
2022-08-26T08:51:12.285Z,64.58
2022-08-26T08:52:12.253Z,64.51
2022-08-26T08:53:12.232Z,61.32
2022-08-26T08:54:12.223Z,62.66
2022-08-26T08:55:14.794Z,64.04
2022-08-26T08:56:13.197Z,64.54
2022-08-26T08:57:12.206Z,61.56
2022-08-26T08:58:12.267Z,59.13
2022-08-26T08:59:12.183Z,63.20
2022-08-26T09:00:12.200Z,63.43
2022-08-26T09:01:12.211Z,63.97
2022-08-26T09:02:12.199Z,65.50
2022-08-26T09:03:12.192Z,67.43
2022-08-26T09:04:12.174Z,62.83
2022-08-26T09:05:15.454Z,61.19
2022-08-26T09:06:12.126Z,61.83
2022-08-26T09:07:12.124Z,60.08
2022-08-26T09:08:12.322Z,61.90
2022-08-26T09:09:12.111Z,61.68
2022-08-26T09:10:12.096Z,61.75
2022-08-26T09:11:12.096Z,61.41
2022-08-26T09:12:12.080Z,61.11
2022-08-26T09:13:16.307Z,61.58
2022-08-26T09:14:13.075Z,61.39
2022-08-26T09:15:12.055Z,61.45
2022-08-26T09:16:12.053Z,64.39
2022-08-26T09:17:12.131Z,62.21
2022-08-26T09:18:12.038Z,63.55
2022-08-26T09:19:12.030Z,61.32
2022-08-26T09:20:12.028Z,62.35
2022-08-26T09:21:12.012Z,66.59
2022-08-26T09:22:12.053Z,62.77
2022-08-26T09:23:12.004Z,63.37
2022-08-26T09:24:13.890Z,63.84
2022-08-26T09:25:12.001Z,62.55
2022-08-26T09:26:11.972Z,62.62
2022-08-26T09:27:11.965Z,63.62
2022-08-26T09:28:11.969Z,62.36
2022-08-26T09:29:11.986Z,63.92
2022-08-26T09:30:12.653Z,62.43
2022-08-26T09:31:12.012Z,65.89
2022-08-26T09:32:11.931Z,63.06
2022-08-26T09:33:12.120Z,61.04
2022-08-26T09:34:11.924Z,62.37
2022-08-26T09:35:12.904Z,63.42
2022-08-26T09:36:11.911Z,60.06
2022-08-26T09:37:11.890Z,61.98
2022-08-26T09:38:12.271Z,63.01
2022-08-26T09:39:11.878Z,66.72
2022-08-26T09:40:11.928Z,61.60
2022-08-26T09:41:11.867Z,62.44
2022-08-26T09:42:11.859Z,59.10
2022-08-26T09:43:11.843Z,61.79
2022-08-26T09:44:14.577Z,64.91
2022-08-26T09:45:11.830Z,64.61
2022-08-26T09:46:11.860Z,60.95
2022-08-26T09:47:11.817Z,60.97
2022-08-26T09:48:11.816Z,61.11
2022-08-26T09:49:12.799Z,62.63
2022-08-26T09:50:12.506Z,61.90
2022-08-26T09:51:11.795Z,63.25
2022-08-26T09:52:11.780Z,63.83
2022-08-26T09:53:12.962Z,61.69
2022-08-26T09:54:11.766Z,61.54
2022-08-26T09:55:12.781Z,63.78
2022-08-26T09:56:11.817Z,61.86
2022-08-26T09:57:11.839Z,61.39
2022-08-26T09:58:11.828Z,60.65
2022-08-26T09:59:11.957Z,62.02
2022-08-26T10:00:11.732Z,60.19
2022-08-26T10:01:11.770Z,65.71
2022-08-26T10:02:12.704Z,64.96
2022-08-26T10:03:12.010Z,65.08
2022-08-26T10:04:11.716Z,62.04
2022-08-26T10:05:11.675Z,62.30
2022-08-26T10:06:11.708Z,61.74
2022-08-26T10:07:11.658Z,64.45
2022-08-26T10:08:11.665Z,59.47
2022-08-26T10:09:11.654Z,59.87
2022-08-26T10:10:11.649Z,61.92
2022-08-26T10:11:11.630Z,63.52
2022-08-26T10:12:12.175Z,60.29
2022-08-26T10:13:11.728Z,61.00
2022-08-26T10:14:11.603Z,62.77
2022-08-26T10:15:11.875Z,58.70
2022-08-26T10:16:11.663Z,60.33
2022-08-26T10:17:11.657Z,60.72
2022-08-26T10:18:12.182Z,61.07
2022-08-26T10:19:11.571Z,64.88
2022-08-26T10:20:22.894Z,64.57
2022-08-26T10:21:13.559Z,63.20
2022-08-26T10:22:11.556Z,65.71
2022-08-26T10:23:11.557Z,63.67
2022-08-26T10:24:12.441Z,60.96
2022-08-26T10:25:11.527Z,62.58
2022-08-26T10:26:11.521Z,62.31
2022-08-26T10:27:11.554Z,59.89
2022-08-26T10:28:11.562Z,63.18
2022-08-26T10:29:11.514Z,63.23
2022-08-26T10:30:11.500Z,62.30
2022-08-26T10:31:11.494Z,70.30
2022-08-26T10:32:13.869Z,62.95
2022-08-26T10:33:11.489Z,63.14
2022-08-26T10:34:12.394Z,62.07
2022-08-26T10:35:11.498Z,63.71
2022-08-26T10:36:15.189Z,63.57
2022-08-26T10:37:15.718Z,65.31
2022-08-26T10:38:11.448Z,65.01
2022-08-26T10:39:11.433Z,59.95
2022-08-26T10:40:11.458Z,59.53
2022-08-26T10:41:11.407Z,61.69
2022-08-26T10:42:11.412Z,61.43
2022-08-26T10:43:12.269Z,63.76
2022-08-26T10:44:12.264Z,61.22
2022-08-26T10:45:11.834Z,63.45
2022-08-26T10:46:11.400Z,60.73
2022-08-26T10:47:11.374Z,62.55
2022-08-26T10:48:11.426Z,63.00
2022-08-26T10:49:11.453Z,63.38
2022-08-26T10:50:11.346Z,61.79
2022-08-26T10:51:11.330Z,65.31
2022-08-26T10:52:15.198Z,61.78
2022-08-26T10:53:12.327Z,63.20
2022-08-26T10:54:11.807Z,63.58
2022-08-26T10:55:11.325Z,63.89
2022-08-26T10:56:18.878Z,64.54
2022-08-26T10:57:12.299Z,62.00
2022-08-26T10:58:11.611Z,60.28
2022-08-26T10:59:12.229Z,64.17
2022-08-26T11:00:11.277Z,64.49
2022-08-26T11:01:11.320Z,64.07
2022-08-26T11:02:11.247Z,64.78
2022-08-26T11:03:21.749Z,63.97
2022-08-26T11:04:12.324Z,64.12
2022-08-26T11:05:11.229Z,64.95
2022-08-26T11:06:11.215Z,62.07
2022-08-26T11:07:11.215Z,60.51
2022-08-26T11:08:11.222Z,63.38
2022-08-26T11:09:11.233Z,60.68
2022-08-26T11:10:11.185Z,62.37
2022-08-26T11:11:11.188Z,62.12
2022-08-26T11:12:11.178Z,63.03
2022-08-26T11:13:11.255Z,60.51
2022-08-26T11:14:11.161Z,61.77
2022-08-26T11:15:11.168Z,61.00
2022-08-26T11:16:11.798Z,62.40
2022-08-26T11:17:12.134Z,61.78
2022-08-26T11:18:11.334Z,62.42
2022-08-26T11:19:11.126Z,63.83
2022-08-26T11:20:13.671Z,66.38
2022-08-26T11:21:11.114Z,63.72
2022-08-26T11:22:11.107Z,62.94
2022-08-26T11:23:11.095Z,62.56
2022-08-26T11:24:11.104Z,62.37
2022-08-26T11:25:11.445Z,61.32
2022-08-26T11:26:12.822Z,62.43
2022-08-26T11:27:12.060Z,63.80
2022-08-26T11:28:11.810Z,62.47
2022-08-26T11:29:13.635Z,65.68
2022-08-26T11:30:11.044Z,65.00
2022-08-26T11:31:11.083Z,63.17
2022-08-26T11:32:11.030Z,60.79
2022-08-26T11:33:11.362Z,63.15
2022-08-26T11:34:11.097Z,61.92
2022-08-26T11:35:11.009Z,61.80
2022-08-26T11:36:12.229Z,62.59
2022-08-26T11:37:11.026Z,61.14
2022-08-26T11:38:11.010Z,62.46
2022-08-26T11:39:10.975Z,60.78
2022-08-26T11:40:47.092Z,63.24
2022-08-26T11:41:10.956Z,64.48
2022-08-26T11:42:10.961Z,61.10
2022-08-26T11:43:10.950Z,65.36
2022-08-26T11:44:10.932Z,62.83
2022-08-26T11:45:11.948Z,61.82
2022-08-26T11:46:11.039Z,61.18
2022-08-26T11:47:11.698Z,62.10
2022-08-26T11:48:10.919Z,62.11
2022-08-26T11:49:10.901Z,60.52
2022-08-26T11:50:10.890Z,61.57
2022-08-26T11:51:12.576Z,61.75
2022-08-26T11:52:10.871Z,60.42
2022-08-26T11:53:10.873Z,60.90
2022-08-26T11:54:10.859Z,61.39
2022-08-26T11:55:10.842Z,61.84
2022-08-26T11:56:10.856Z,62.82
2022-08-26T11:57:11.946Z,64.85
2022-08-26T11:58:10.869Z,63.48
2022-08-26T11:59:10.815Z,62.54
2022-08-26T12:00:13.586Z,63.02
2022-08-26T12:01:11.812Z,60.54
2022-08-26T12:02:11.753Z,60.20
2022-08-26T12:03:12.049Z,62.57
2022-08-26T12:04:10.944Z,63.33
2022-08-26T12:05:10.774Z,61.31
2022-08-26T12:06:10.793Z,62.73
2022-08-26T12:07:10.784Z,61.70
2022-08-26T12:08:11.041Z,62.61
2022-08-26T12:09:10.741Z,62.16
2022-08-26T12:10:10.778Z,59.64
2022-08-26T12:11:10.748Z,60.67
2022-08-26T12:12:10.736Z,60.77
2022-08-26T12:13:10.732Z,61.01
2022-08-26T12:14:10.704Z,61.94
2022-08-26T12:15:10.721Z,61.84
2022-08-26T12:16:10.710Z,58.61
2022-08-26T12:17:10.686Z,61.30
2022-08-26T12:18:10.676Z,61.29
2022-08-26T12:19:10.674Z,62.75
2022-08-26T12:20:10.748Z,65.24
2022-08-26T12:21:10.661Z,60.05
2022-08-26T12:22:10.643Z,62.82
2022-08-26T12:23:10.651Z,59.47
2022-08-26T12:24:10.643Z,59.08
2022-08-26T12:25:11.262Z,63.01
2022-08-26T12:26:10.616Z,62.79
2022-08-26T12:27:10.610Z,65.47
2022-08-26T12:28:10.636Z,62.80
2022-08-26T12:29:20.091Z,61.50
2022-08-26T12:30:12.502Z,61.52
2022-08-26T12:31:10.696Z,62.25
2022-08-26T12:32:11.272Z,62.39
2022-08-26T12:33:22.238Z,63.59
2022-08-26T12:34:17.607Z,64.88
2022-08-26T12:35:11.595Z,63.04
2022-08-26T12:36:10.540Z,63.03
2022-08-26T12:37:10.534Z,60.79
2022-08-26T12:38:10.611Z,61.17
2022-08-26T12:39:10.517Z,61.50
2022-08-26T12:40:10.586Z,60.93
2022-08-26T12:41:10.505Z,61.67
2022-08-26T12:42:10.494Z,60.88
2022-08-26T12:43:10.508Z,62.66
2022-08-26T12:44:10.490Z,63.31
2022-08-26T12:45:10.477Z,62.69
2022-08-26T12:46:10.475Z,60.82
2022-08-26T12:47:10.471Z,62.33
2022-08-26T12:48:10.680Z,61.64
2022-08-26T12:49:10.452Z,62.84
2022-08-26T12:50:10.440Z,62.68
2022-08-26T12:51:10.436Z,62.22
2022-08-26T12:52:10.434Z,59.58
2022-08-26T12:53:10.421Z,63.49
2022-08-26T12:54:10.444Z,61.53
2022-08-26T12:55:11.276Z,63.02
2022-08-26T12:56:10.410Z,61.55
2022-08-26T12:57:10.392Z,65.22